EDT,Max TemperatureF,Mean TemperatureF,Min TemperatureF,Max Dew PointF,MeanDew PointF,Min DewpointF,Max Humidity, Mean Humidity, Min Humidity, Max Sea Level PressureIn, Mean Sea Level PressureIn, Min Sea Level PressureIn, Max VisibilityMiles, Mean VisibilityMiles, Min VisibilityMiles, Max Wind SpeedMPH, Mean Wind SpeedMPH, Max Gust SpeedMPH,PrecipitationIn, CloudCover, Events, WindDirDegrees
2013-7-1,79,72,64,72,68,64,100,84,67,30.07,30.01,29.94,10,6,0,8,1,10,0.51,8,Fog-Rain,77
2013-7-2,84,75,65,73,69,64,100,85,69,30.19,30.12,30.05,10,8,1,16,4,25,1.27,7,Rain-Thunderstorm,71
2013-7-3,87,76,65,72,67,64,100,75,50,30.20,30.17,30.12,10,9,1,12,3,16,0.25,5,Rain,235
2013-7-4,92,80,67,73,68,66,100,72,44,30.22,30.17,30.08,10,6,0,15,3,22,T,5,Fog-Thunderstorm,222
2013-7-5,92,81,69,72,70,65,100,71,41,30.17,30.12,30.04,10,7,0,14,3,18,0.05,4,Fog-Rain-Thunderstorm,232
2013-7-6,87,77,66,72,68,63,100,73,45,30.11,30.08,30.01,10,6,0,15,4,20,T,4,Fog,281
2013-7-7,89,76,63,73,68,63,100,76,52,30.06,29.99,29.92,10,9,5,10,1,18,0.10,1,Rain-Thunderstorm,234
2013-7-8,83,76,69,70,69,67,100,79,58,30.06,29.99,29.94,10,8,2,14,2,18,0.10,7,Rain,61
2013-7-9,83,75,67,70,67,64,97,78,58,30.12,30.07,30.03,10,10,5,14,2,18,0.02,7,Rain,193
2013-7-10,83,76,68,74,70,66,100,85,69,30.05,29.89,29.78,10,6,1,17,5,22,0.27,7,Rain-Thunderstorm,169
2013-7-11,83,72,60,70,65,55,100,72,43,30.01,29.84,29.77,10,7,1,14,2,18,T,6,Rain,341
2013-7-12,82,71,59,64,59,56,97,70,42,30.23,30.13,30.02,10,10,10,12,2,13,0.00,2,,75
2013-7-13,78,68,58,68,63,57,100,79,57,30.33,30.31,30.25,10,10,2,9,1,14,T,7,Rain,160
2013-7-14,86,76,65,70,66,64,100,74,48,30.33,30.30,30.23,10,6,0,12,2,15,0.00,5,Fog,54
2013-7-15,91,78,65,69,65,62,100,71,41,30.25,30.21,30.13,10,8,0,13,3,17,0.00,5,Fog,296
2013-7-16,91,78,64,68,65,62,93,67,41,30.22,30.19,30.15,10,10,8,10,2,16,0.00,2,,315
2013-7-17,94,78,62,71,66,62,100,68,36,30.22,30.14,30.00,10,9,2,10,3,17,0.00,1,,270
2013-7-18,93,81,69,72,69,65,100,72,44,30.04,29.99,29.95,10,7,0,17,3,24,0.42,3,Fog-Rain-Thunderstorm,6
2013-7-19,93,80,67,74,69,66,100,71,41,29.96,29.85,29.71,10,6,0,22,5,35,0.12,4,Fog-Rain-Thunderstorm,238
2013-7-20,85,75,64,70,66,64,100,76,51,29.84,29.76,29.68,10,6,0,15,3,25,0.05,1,Fog-Rain,238
2013-7-21,82,71,60,64,61,53,100,70,39,30.02,29.93,29.85,10,3,0,12,2,18,0.00,1,Fog,304
2013-7-22,81,70,59,68,61,57,100,81,62,30.06,30.01,29.89,10,5,0,9,2,13,0.37,6,Fog-Rain,90
2013-7-23,79,71,63,68,65,63,100,81,62,29.87,29.69,29.57,10,5,0,7,2,9,1.44,6,Fog-Rain,11
2013-7-24,77,65,53,66,59,45,100,75,50,30.05,29.72,29.61,10,6,0,16,5,21,0.00,6,Fog,329
2013-7-25,72,60,47,59,51,45,93,73,53,30.13,30.10,30.04,10,10,10,8,1,12,0.00,1,,46
2013-7-26,71,64,56,61,58,55,97,82,66,30.09,30.05,30.01,10,10,10,10,1,13,0.01,5,Rain,303
2013-7-27,82,68,53,65,57,53,100,74,48,30.08,30.04,29.98,10,6,0,12,2,16,0.00,2,Fog,136
2013-7-28,77,68,59,68,63,57,100,78,56,30.03,30.00,29.96,10,5,0,9,1,13,0.03,7,Fog-Rain,158
2013-7-29,83,71,58,66,64,55,100,71,42,30.09,30.01,29.98,10,4,0,15,2,22,0.09,5,Fog-Rain-Thunderstorm,227
2013-7-30,78,66,53,59,54,50,100,70,40,30.14,30.11,30.07,10,10,9,14,4,21,0.00,2,,289
2013-7-31,81,67,53,63,58,53,100,70,39,30.17,30.10,30.04,10,7,0,10,2,15,0.00,1,Fog,156